Time;durP1;ratioP1;P1;durP2;ratioP2;P2;SDS_P1;SDS_P2;PMS_P1;PMS_P2;Temp;Humidity;BMP_temperature;BMP_pressure;BME280_temperature;BME280_humidity;BME280_pressure;Samples;Min_cycle;Max_cycle;Signal;HPM_P1;HPM_P2
2022/10/04 00:02:02;;;;;;;3.75;2.67;;;;;;;11.32;60.19;99537.00;5005000;28;20053;-69
2022/10/04 00:04:48;;;;;;;3.60;2.28;;;;;;;11.35;60.39;99545.53;5013107;28;20061;-69
2022/10/04 00:07:22;;;;;;;9.05;2.70;;;;;;;11.20;60.19;99543.31;5013397;28;20564;-69
2022/10/04 00:09:58;;;;;;;5.75;2.70;;;;;;;11.14;61.00;99544.66;5012976;28;20021;-69
2022/10/04 00:12:37;;;;;;;7.68;3.25;;;;;;;11.23;60.91;99537.84;5013784;28;20064;-69
2022/10/04 00:15:16;;;;;;;9.18;3.15;;;;;;;11.34;60.65;99543.06;5012263;28;20029;-69
2022/10/04 00:17:42;;;;;;;4.75;2.30;;;;;;;11.58;60.07;99541.59;4994073;28;20105;-69
2022/10/04 00:20:46;;;;;;;5.15;2.88;;;;;;;11.77;59.23;99538.34;5000458;28;20116;-69
2022/10/04 00:23:23;;;;;;;6.20;3.55;;;;;;;11.93;58.96;99542.16;4993901;28;20056;-69
2022/10/04 00:25:51;;;;;;;3.00;2.38;;;;;;;11.89;59.14;99530.00;4993908;28;20032;-69
2022/10/04 00:28:19;;;;;;;4.32;2.10;;;;;;;12.06;58.59;99528.22;4992527;28;20048;-69
2022/10/04 00:31:07;;;;;;;2.75;2.20;;;;;;;12.19;58.24;99527.13;4998679;28;20037;-69
2022/10/04 00:33:56;;;;;;;3.83;2.83;;;;;;;12.21;58.05;99527.59;5012395;28;20394;-69
2022/10/04 00:36:24;;;;;;;2.80;2.28;;;;;;;12.13;58.17;99520.09;4982635;28;20042;-69
2022/10/04 00:39:15;;;;;;;6.47;2.78;;;;;;;12.10;57.86;99520.78;4993775;28;20121;-69
2022/10/04 00:41:56;;;;;;;3.95;2.53;;;;;;;12.07;58.14;99518.69;4993508;28;20143;-69
2022/10/04 00:44:32;;;;;;;3.63;2.63;;;;;;;12.15;58.10;99520.56;4991808;28;20039;-69
2022/10/04 00:47:00;;;;;;;3.28;2.50;;;;;;;12.13;58.02;99519.28;4992186;28;20133;-69
2022/10/04 00:49:32;;;;;;;5.53;2.85;;;;;;;11.97;58.85;99514.25;4997276;28;20022;-69
2022/10/04 00:52:07;;;;;;;5.53;2.72;;;;;;;11.90;58.89;99517.63;5010326;28;20037;-69
2022/10/04 00:54:46;;;;;;;3.38;2.47;;;;;;;11.97;58.72;99510.66;5011647;28;20026;-69
2022/10/04 00:57:42;;;;;;;7.35;2.53;;;;;;;11.99;58.39;99517.53;5012819;28;20237;-69
2022/10/04 01:00:14;;;;;;;3.47;2.85;;;;;;;11.99;58.41;99506.31;5011561;28;20060;-69
2022/10/04 01:03:09;;;;;;;4.90;2.55;;;;;;;12.05;58.69;99523.78;5012025;28;20034;-69
2022/10/04 01:05:45;;;;;;;11.18;3.00;;;;;;;12.08;58.19;99521.13;5011729;28;20030;-69
2022/10/04 01:08:51;;;;;;;4.88;2.85;;;;;;;12.03;58.41;99507.31;5012450;28;20460;-69
2022/10/04 01:11:23;;;;;;;4.10;2.63;;;;;;;12.13;58.40;99511.66;5011525;28;20493;-69
2022/10/04 01:13:57;;;;;;;3.97;3.03;;;;;;;12.25;57.60;99516.53;5011745;28;20048;-69
2022/10/04 01:16:32;;;;;;;2.88;2.50;;;;;;;12.09;57.82;99527.56;5011676;28;20030;-69
2022/10/04 01:19:23;;;;;;;6.47;2.90;;;;;;;11.79;59.08;99525.63;5012606;28;20025;-70
2022/10/04 01:22:03;;;;;;;3.42;2.95;;;;;;;11.71;59.16;99528.50;4993164;28;20429;-69
2022/10/04 01:24:34;;;;;;;6.38;3.08;;;;;;;11.58;59.33;99531.19;4992886;28;20045;-69
2022/10/04 01:27:00;;;;;;;3.85;2.53;;;;;;;11.56;59.86;99530.72;4992765;28;20473;-69
2022/10/04 01:29:30;;;;;;;4.80;3.22;;;;;;;11.54;59.69;99530.25;5002610;28;20408;-69
2022/10/04 01:31:58;;;;;;;6.13;2.85;;;;;;;11.44;59.76;99542.69;5009683;28;20044;-69
2022/10/04 01:34:27;;;;;;;4.22;3.05;;;;;;;11.50;59.56;99544.13;5012162;28;20034;-70
2022/10/04 01:36:58;;;;;;;4.90;3.55;;;;;;;11.35;60.24;99544.72;5012432;28;20030;-69
2022/10/04 01:39:26;;;;;;;4.70;3.72;;;;;;;11.37;60.17;99546.03;5012164;28;20048;-69
2022/10/04 01:42:03;;;;;;;8.43;3.55;;;;;;;11.24;60.54;99545.09;5011113;28;20477;-69
2022/10/04 01:44:37;;;;;;;3.40;3.10;;;;;;;11.17;61.36;99555.19;5010081;28;20120;-69
2022/10/04 01:47:13;;;;;;;3.55;3.03;;;;;;;11.24;60.91;99561.09;5009854;28;20491;-70
2022/10/04 01:49:42;;;;;;;2.70;2.50;;;;;;;11.12;61.22;99563.78;5012144;28;20034;-69
2022/10/04 01:52:21;;;;;;;5.15;2.50;;;;;;;11.20;61.04;99571.31;5012203;28;20025;-69
2022/10/04 01:55:12;;;;;;;2.88;2.65;;;;;;;11.29;60.78;99569.28;5011233;28;20532;-69
2022/10/04 01:57:46;;;;;;;4.53;2.50;;;;;;;11.35;60.67;99562.34;5011945;28;20037;-70
2022/10/04 02:00:13;;;;;;;9.93;3.75;;;;;;;11.40;59.94;99564.09;5011350;28;20030;-69
2022/10/04 02:02:54;;;;;;;6.07;2.92;;;;;;;11.55;59.82;99570.31;5010747;28;20030;-69
2022/10/04 02:05:43;;;;;;;2.70;2.50;;;;;;;11.82;59.13;99570.94;5009469;28;20061;-69
2022/10/04 02:08:15;;;;;;;5.93;3.63;;;;;;;11.79;58.49;99569.63;4999959;28;20018;-69
2022/10/04 02:10:42;;;;;;;9.65;3.47;;;;;;;11.49;59.53;99564.88;5010541;28;20104;-69
2022/10/04 02:13:12;;;;;;;10.63;3.28;;;;;;;11.51;59.26;99575.75;5011921;28;20033;-69
2022/10/04 02:15:38;;;;;;;6.93;3.60;;;;;;;11.38;59.97;99577.63;5011085;28;20522;-69
2022/10/04 02:18:10;;;;;;;7.25;3.05;;;;;;;11.42;60.00;99572.19;5011865;28;20562;-69
2022/10/04 02:20:39;;;;;;;6.57;3.03;;;;;;;11.47;59.88;99577.59;5011683;28;20033;-69
2022/10/04 02:23:05;;;;;;;3.33;2.95;;;;;;;11.46;59.57;99568.38;5010310;28;20429;-69
2022/10/04 02:25:31;;;;;;;5.15;2.95;;;;;;;11.55;60.02;99575.91;5010313;28;20488;-69
2022/10/04 02:27:57;;;;;;;8.00;3.50;;;;;;;11.59;59.54;99571.25;5010207;28;20021;-69
2022/10/04 02:30:23;;;;;;;8.20;2.90;;;;;;;11.63;58.73;99578.66;5011639;28;20480;-69
2022/10/04 02:33:02;;;;;;;5.13;3.53;;;;;;;11.71;58.97;99581.75;5011670;28;20101;-69
2022/10/04 02:35:34;;;;;;;3.90;2.97;;;;;;;11.69;59.54;99579.28;5010502;28;20021;-69
2022/10/04 02:38:11;;;;;;;5.35;3.45;;;;;;;11.84;59.27;99582.63;5009426;28;20026;-69
2022/10/04 02:40:49;;;;;;;9.50;3.53;;;;;;;11.97;58.91;99580.72;5010496;28;20032;-69
2022/10/04 02:43:34;;;;;;;4.93;2.72;;;;;;;12.08;57.91;99591.19;5010643;28;20357;-69
2022/10/04 02:46:25;;;;;;;4.15;2.67;;;;;;;11.78;58.34;99590.41;5011474;28;20121;-69
2022/10/04 02:48:55;;;;;;;6.18;3.58;;;;;;;11.67;59.33;99595.59;5011687;28;20065;-69
2022/10/04 02:51:26;;;;;;;7.60;3.53;;;;;;;11.61;59.47;99592.19;5010172;28;20049;-69
2022/10/04 02:54:13;;;;;;;3.78;2.78;;;;;;;11.62;59.54;99601.38;5009827;28;20469;-69
2022/10/04 02:56:39;;;;;;;5.35;3.22;;;;;;;11.62;59.46;99598.59;5015020;28;20021;-69
2022/10/04 02:59:05;;;;;;;6.13;3.47;;;;;;;11.59;59.79;99591.69;5014162;28;20209;-69
2022/10/04 03:01:51;;;;;;;3.40;2.85;;;;;;;11.60;59.94;99601.75;5020567;28;20033;-69
2022/10/04 03:04:20;;;;;;;4.20;2.83;;;;;;;11.61;60.07;99597.78;5014902;28;20042;-69
2022/10/04 03:06:45;;;;;;;3.03;2.72;;;;;;;11.60;60.13;99589.69;5014682;28;20026;-69
2022/10/04 03:09:13;;;;;;;5.75;2.80;;;;;;;11.61;60.29;99594.97;5014112;28;20419;-69
2022/10/04 03:11:41;;;;;;;5.10;3.00;;;;;;;11.69;59.83;99589.66;5013903;28;20054;-69
2022/10/04 03:14:14;;;;;;;3.00;2.78;;;;;;;11.65;59.94;99597.94;5014383;28;20034;-69
2022/10/04 03:16:44;;;;;;;7.38;2.88;;;;;;;11.65;59.84;99598.72;5014715;28;20112;-70
2022/10/04 03:19:11;;;;;;;6.97;3.75;;;;;;;11.68;59.78;99596.41;5013951;28;20026;-69
2022/10/04 03:21:39;;;;;;;8.80;4.78;;;;;;;11.69;59.85;99592.44;5012254;28;20037;-69
2022/10/04 03:24:06;;;;;;;10.27;5.65;;;;;;;11.66;59.95;99589.16;5014803;28;20064;-69
2022/10/04 03:26:45;;;;;;;24.73;5.45;;;;;;;11.70;59.84;99597.72;5014545;28;20025;-69
2022/10/04 03:29:13;;;;;;;7.20;4.65;;;;;;;11.68;59.84;99607.63;5013776;28;20037;-69
2022/10/04 03:31:42;;;;;;;16.90;4.60;;;;;;;11.68;60.21;99596.41;5012488;28;20056;-69
2022/10/04 03:34:20;;;;;;;5.35;3.47;;;;;;;11.64;60.14;99591.50;5014665;28;20030;-69
2022/10/04 03:36:48;;;;;;;5.07;2.92;;;;;;;11.66;60.18;99582.75;5014106;28;20163;-69
2022/10/04 03:39:28;;;;;;;21.38;3.63;;;;;;;11.71;59.81;99595.75;5008259;28;20022;-69
2022/10/04 03:41:56;;;;;;;4.07;2.85;;;;;;;11.73;59.34;99596.22;5012112;28;20040;-69
2022/10/04 03:44:22;;;;;;;5.30;4.15;;;;;;;11.71;59.34;99590.94;5014022;28;20137;-69
2022/10/04 03:46:48;;;;;;;5.82;3.85;;;;;;;11.74;58.81;99583.84;5012776;28;20113;-69
2022/10/04 03:49:22;;;;;;;7.18;3.80;;;;;;;11.72;58.21;99591.78;5013175;28;20034;-69
2022/10/04 03:51:49;;;;;;;4.22;3.30;;;;;;;11.88;58.28;99595.63;5012948;28;20036;-69
2022/10/04 03:54:22;;;;;;;6.60;3.50;;;;;;;11.82;58.08;99601.75;5014220;28;20077;-69
2022/10/04 03:56:50;;;;;;;4.68;3.13;;;;;;;11.78;58.10;99596.84;5013871;28;20080;-69
2022/10/04 03:59:17;;;;;;;5.70;3.00;;;;;;;11.80;57.86;99607.69;5012857;28;20407;-69
2022/10/04 04:02:11;;;;;;;3.15;2.40;;;;;;;11.80;57.84;99611.34;5009471;28;20038;-69
2022/10/04 04:04:47;;;;;;;7.25;2.80;;;;;;;11.90;57.55;99610.09;4999781;28;20034;-69
2022/10/04 04:07:30;;;;;;;6.90;4.18;;;;;;;11.85;57.74;99618.72;5012479;28;20026;-69
2022/10/04 04:10:04;;;;;;;13.85;5.68;;;;;;;11.82;57.32;99624.19;5011032;28;20516;-69
2022/10/04 04:12:39;;;;;;;15.40;5.57;;;;;;;11.85;57.03;99610.31;5015760;28;20025;-69
2022/10/04 04:15:10;;;;;;;11.57;6.80;;;;;;;11.98;56.57;99616.00;5022478;28;20104;-69
2022/10/04 04:17:40;;;;;;;15.77;6.97;;;;;;;11.89;56.74;99625.28;5027374;28;20017;-69
2022/10/04 04:20:33;;;;;;;7.72;5.43;;;;;;;11.86;56.36;99619.53;5019329;28;20018;-69
2022/10/04 04:23:04;;;;;;;7.78;4.25;;;;;;;11.81;56.53;99623.34;5017523;28;20038;-69
2022/10/04 04:25:31;;;;;;;;;;;;;;;11.91;56.79;99622.97;4994502;28;20037;-69
2022/10/04 04:28:31;;;;;;;9.80;4.57;;;;;;;11.79;56.77;99620.06;4993353;28;20308;-69
2022/10/04 04:31:22;;;;;;;8.45;2.60;;;;;;;11.60;57.13;99621.34;4993210;28;20240;-69
2022/10/04 04:33:59;;;;;;;5.13;3.38;;;;;;;11.70;57.12;99616.50;4968187;28;20061;-69
2022/10/04 04:36:29;;;;;;;8.73;3.20;;;;;;;11.70;56.53;99613.69;5012008;28;20176;-69
2022/10/04 04:41:57;;;;;;;10.93;4.72;;;;;;;11.64;56.61;99630.72;5009429;28;20420;-69
2022/10/04 04:44:24;;;;;;;10.73;4.57;;;;;;;11.72;56.47;99625.41;5009523;28;20042;-69
2022/10/04 04:46:51;;;;;;;15.18;6.05;;;;;;;11.74;56.23;99629.50;5010793;28;20076;-69
2022/10/04 04:49:17;;;;;;;12.68;5.32;;;;;;;11.81;56.16;99626.16;5021321;28;20521;-69
2022/10/04 04:51:49;;;;;;;11.95;4.80;;;;;;;11.82;56.64;99632.59;4991650;28;20030;-69
2022/10/04 04:54:16;;;;;;;8.98;6.22;;;;;;;11.83;56.35;99634.22;4991427;28;20398;-69
2022/10/04 04:56:43;;;;;;;10.82;7.40;;;;;;;11.89;56.27;99630.88;4992635;28;20109;-69
2022/10/04 04:59:10;;;;;;;20.73;8.18;;;;;;;11.96;56.23;99629.53;4999610;28;20021;-69
2022/10/04 05:01:47;;;;;;;13.45;6.00;;;;;;;12.01;56.18;99629.31;5011496;28;20095;-69
2022/10/04 05:04:12;;;;;;;5.95;3.88;;;;;;;11.93;56.20;99631.84;4993462;28;20398;-69
2022/10/04 05:06:41;;;;;;;3.63;3.10;;;;;;;11.94;56.07;99622.31;5010081;28;20029;-69
2022/10/04 05:09:23;;;;;;;3.25;2.80;;;;;;;11.98;55.63;99636.44;5009998;28;20475;-69
2022/10/04 05:11:51;;;;;;;11.32;3.17;;;;;;;11.96;55.92;99629.53;5012055;28;20017;-69
2022/10/04 05:14:17;;;;;;;6.13;2.88;;;;;;;11.96;55.81;99635.94;5011349;28;20044;-69
2022/10/04 05:16:52;;;;;;;9.70;3.08;;;;;;;12.07;55.63;99642.03;5010619;28;20029;-69
2022/10/04 05:19:27;;;;;;;5.68;2.63;;;;;;;12.14;55.21;99641.47;5010239;28;20029;-69
2022/10/04 05:21:55;;;;;;;7.10;3.80;;;;;;;12.11;55.48;99647.75;5011918;28;20079;-69
2022/10/04 05:24:33;;;;;;;16.45;6.00;;;;;;;12.01;55.70;99651.75;5011810;28;20025;-69
2022/10/04 05:27:04;;;;;;;14.27;5.65;;;;;;;11.94;55.49;99643.88;5011846;28;20014;-69
2022/10/04 05:29:36;;;;;;;7.57;4.78;;;;;;;11.94;56.02;99653.13;5010901;28;20022;-69
2022/10/04 05:32:22;;;;;;;7.35;4.35;;;;;;;11.93;55.62;99654.25;5009944;28;20026;-69
2022/10/04 05:34:49;;;;;;;8.65;4.30;;;;;;;11.94;55.86;99653.13;4992036;28;20106;-69
2022/10/04 05:37:24;;;;;;;10.52;4.40;;;;;;;11.91;55.89;99665.00;5002164;28;20488;-69
2022/10/04 05:40:04;;;;;;;13.38;4.10;;;;;;;11.97;55.65;99665.63;5010411;28;20026;-69
2022/10/04 05:42:44;;;;;;;5.90;4.40;;;;;;;11.92;55.93;99671.44;5009250;28;20065;-69
2022/10/04 05:45:14;;;;;;;6.23;3.67;;;;;;;11.96;56.09;99660.38;5009699;28;20045;-69
2022/10/04 05:47:41;;;;;;;13.90;3.33;;;;;;;11.93;56.32;99659.06;5010592;28;20428;-69
2022/10/04 05:50:16;;;;;;;3.83;3.05;;;;;;;11.98;56.26;99669.25;5009160;28;20029;-70
2022/10/04 05:52:42;;;;;;;3.45;2.67;;;;;;;11.98;56.18;99670.06;5018836;28;20037;-70
2022/10/04 05:55:15;;;;;;;4.40;2.60;;;;;;;12.21;55.77;99687.44;5009392;28;20404;-70
2022/10/04 05:58:02;;;;;;;12.48;3.38;;;;;;;12.41;54.99;99693.38;5006352;28;20034;-70
2022/10/04 06:00:34;;;;;;;3.78;3.25;;;;;;;12.69;54.30;99698.44;5020341;28;20035;-69
2022/10/04 06:03:03;;;;;;;10.77;3.08;;;;;;;12.71;53.98;99704.53;5023920;28;20022;-69
2022/10/04 06:05:40;;;;;;;3.75;3.17;;;;;;;12.75;53.55;99705.47;5008853;28;20080;-69
2022/10/04 06:08:08;;;;;;;8.00;2.50;;;;;;;12.79;53.63;99714.03;5005353;28;20028;-69
2022/10/04 06:11:03;;;;;;;10.10;3.03;;;;;;;12.65;53.78;99708.69;5002835;28;20306;-68
2022/10/04 06:14:16;;;;;;;6.28;2.60;;;;;;;12.69;53.90;99706.88;5004024;28;20077;-71
2022/10/04 06:17:03;;;;;;;10.15;3.92;;;;;;;12.78;53.49;99726.44;5005256;28;20034;-69
2022/10/04 06:19:53;;;;;;;9.27;3.60;;;;;;;12.86;53.87;99722.72;5009791;28;20025;-70
2022/10/04 06:22:21;;;;;;;16.83;3.50;;;;;;;13.10;53.39;99721.19;4999119;28;20026;-70
2022/10/04 06:24:59;;;;;;;6.35;2.83;;;;;;;13.29;53.17;99725.44;5000597;28;20112;-71
2022/10/04 06:27:47;;;;;;;5.97;3.20;;;;;;;13.47;52.64;99726.09;5010877;28;20062;-69
2022/10/04 06:30:18;;;;;;;5.28;3.08;;;;;;;13.50;52.41;99718.97;5015823;28;20113;-69
2022/10/04 06:33:20;;;;;;;14.90;3.78;;;;;;;13.55;52.23;99724.34;5008466;28;20112;-68
2022/10/04 06:36:18;;;;;;;5.88;2.65;;;;;;;13.48;52.43;99725.75;5009071;28;20022;-68
2022/10/04 06:38:53;;;;;;;2.75;2.50;;;;;;;13.65;51.58;99723.88;5006622;28;20030;-70
2022/10/04 06:41:33;;;;;;;5.45;2.72;;;;;;;13.61;51.63;99726.56;5011472;28;20084;-71
2022/10/04 06:44:11;;;;;;;8.40;3.45;;;;;;;13.52;52.47;99728.69;5010612;28;20065;-70
2022/10/04 06:46:48;;;;;;;6.05;2.92;;;;;;;13.42;52.99;99732.72;5009140;28;20029;-70
2022/10/04 06:49:32;;;;;;;3.75;2.40;;;;;;;13.32;52.08;99738.78;5010289;28;20026;-71
2022/10/04 06:52:30;;;;;;;4.28;3.45;;;;;;;13.30;51.96;99736.34;5014927;28;20029;-70
2022/10/04 06:55:19;;;;;;;7.43;4.00;;;;;;;13.36;51.80;99730.47;5008166;28;20030;-71
2022/10/04 06:58:33;;;;;;;4.20;3.10;;;;;;;13.51;51.19;99748.69;5004388;28;20085;-69
2022/10/04 07:01:10;;;;;;;5.68;3.28;;;;;;;13.54;51.70;99743.22;4977851;28;20038;-71
2022/10/04 07:04:08;;;;;;;13.10;3.67;;;;;;;14.03;50.87;99744.41;5012030;28;20466;-72
2022/10/04 07:06:51;;;;;;;8.93;4.25;;;;;;;14.49;50.69;99751.88;5002470;28;20582;-74
2022/10/04 07:09:25;;;;;;;9.63;3.53;;;;;;;14.82;48.80;99740.44;5008389;28;20030;-73
2022/10/04 07:12:09;;;;;;;5.95;4.00;;;;;;;14.98;48.12;99754.56;5007351;28;20476;-73
2022/10/04 07:14:43;;;;;;;7.90;4.15;;;;;;;15.37;47.91;99747.56;5005976;28;20410;-72
2022/10/04 07:17:14;;;;;;;9.85;4.80;;;;;;;15.57;46.61;99743.69;5001203;28;20061;-73
2022/10/04 07:19:46;;;;;;;9.68;4.93;;;;;;;15.47;47.45;99747.06;5016275;28;20034;-70
2022/10/04 07:22:40;;;;;;;24.33;4.55;;;;;;;15.77;46.68;99742.97;5009627;28;20025;-72
2022/10/04 07:25:06;;;;;;;14.30;6.25;;;;;;;16.12;46.05;99753.53;4991269;28;20044;-70
2022/10/04 07:27:45;;;;;;;8.93;5.05;;;;;;;16.32;45.86;99745.94;5013149;28;20026;-70
2022/10/04 07:30:19;;;;;;;10.90;4.30;;;;;;;16.31;45.40;99754.78;5014541;28;20083;-70
2022/10/04 07:32:49;;;;;;;4.65;2.40;;;;;;;15.89;44.59;99761.78;5011878;28;20091;-70
2022/10/04 07:35:35;;;;;;;3.50;2.10;;;;;;;15.97;44.99;99747.53;5006862;28;20819;-70
2022/10/04 07:38:14;;;;;;;8.02;2.40;;;;;;;16.21;44.22;99747.69;5001459;28;20531;-71
2022/10/04 07:40:57;;;;;;;4.25;2.10;;;;;;;15.90;44.53;99746.53;5003016;28;20048;-69
2022/10/04 07:43:39;;;;;;;7.80;3.15;;;;;;;15.61;44.86;99749.41;5009561;28;20030;-70
2022/10/04 07:46:37;;;;;;;6.30;2.47;;;;;;;15.68;44.54;99738.31;5007069;28;20077;-71
2022/10/04 07:49:03;;;;;;;12.68;2.05;;;;;;;15.96;44.56;99753.56;5007810;28;20025;-69
2022/10/04 07:51:28;;;;;;;3.25;2.20;;;;;;;16.23;43.77;99759.44;5007015;28;20575;-70
2022/10/04 07:54:38;;;;;;;5.00;2.65;;;;;;;16.39;43.62;99757.38;5003307;28;20116;-70
2022/10/04 07:57:14;;;;;;;4.20;2.55;;;;;;;16.21;43.95;99764.63;4984312;28;20029;-71
2022/10/04 07:59:51;;;;;;;3.00;2.00;;;;;;;16.23;43.49;99753.78;4990216;28;20189;-72
2022/10/04 08:02:41;;;;;;;5.03;1.63;;;;;;;16.47;43.17;99754.75;5001015;28;20073;-70
2022/10/04 08:05:33;;;;;;;3.55;1.35;;;;;;;16.58;43.16;99754.97;5006377;28;20030;-70
2022/10/04 08:08:16;;;;;;;3.70;1.70;;;;;;;16.52;42.67;99760.91;5004756;28;20485;-70
2022/10/04 08:11:00;;;;;;;2.75;1.70;;;;;;;16.39;43.20;99753.75;5006145;28;20479;-70
2022/10/04 08:13:41;;;;;;;9.73;2.22;;;;;;;16.24;43.71;99755.44;5003928;28;20121;-71
2022/10/04 08:16:34;;;;;;;1.70;1.60;;;;;;;16.41;43.34;99757.88;5008499;28;20044;-71
2022/10/04 08:19:15;;;;;;;2.67;1.15;;;;;;;16.32;43.11;99756.41;5023160;28;20475;-70
2022/10/04 08:22:04;;;;;;;5.20;1.63;;;;;;;16.48;42.73;99750.72;5002679;28;20034;-70
2022/10/04 08:24:46;;;;;;;3.35;2.13;;;;;;;16.57;42.62;99759.81;5008850;28;20061;-70
2022/10/04 08:27:29;;;;;;;8.23;2.05;;;;;;;16.95;41.92;99761.03;5010953;28;20395;-70
2022/10/04 08:30:16;;;;;;;2.92;1.40;;;;;;;16.58;41.95;99755.81;5009044;28;20037;-70
2022/10/04 08:33:21;;;;;;;4.15;1.88;;;;;;;16.21;43.11;99750.53;5007989;28;20030;-70
2022/10/04 08:35:54;;;;;;;6.35;1.90;;;;;;;16.18;42.90;99751.25;5002104;28;20029;-71
2022/10/04 08:38:53;;;;;;;4.63;1.80;;;;;;;16.06;42.94;99750.19;4991605;28;20069;-71
2022/10/04 08:41:52;;;;;;;15.70;1.90;;;;;;;15.89;43.29;99750.50;4992856;28;20022;-71
2022/10/04 08:44:41;;;;;;;9.30;3.55;;;;;;;15.88;43.93;99754.53;5002689;28;20104;-70
2022/10/04 08:47:44;;;;;;;4.68;1.70;;;;;;;16.54;42.28;99752.09;5011049;28;20026;-70
2022/10/04 08:50:54;;;;;;;3.67;1.52;;;;;;;17.03;41.61;99762.03;5006537;28;20029;-71
2022/10/04 08:53:44;;;;;;;2.53;1.85;;;;;;;16.96;40.95;99767.53;5007874;28;20045;-70
2022/10/04 08:56:31;;;;;;;2.15;1.42;;;;;;;17.30;40.60;99767.81;5008669;28;20091;-68
2022/10/04 08:59:24;;;;;;;3.47;1.33;;;;;;;17.45;40.00;99766.06;5005337;28;20033;-69
2022/10/04 09:02:07;;;;;;;2.17;1.60;;;;;;;17.40;39.70;99769.22;5008354;28;20034;-71
2022/10/04 09:04:58;;;;;;;2.35;1.30;;;;;;;17.00;40.18;99762.78;5008091;28;20029;-70
2022/10/04 09:07:50;;;;;;;1.63;1.50;;;;;;;17.51;39.47;99767.41;5007928;28;20037;-71
2022/10/04 09:10:39;;;;;;;2.53;1.50;;;;;;;17.33;39.43;99764.25;5010409;28;20518;-70
2022/10/04 09:13:23;;;;;;;6.82;1.92;;;;;;;16.94;40.08;99765.06;5006252;28;20471;-70
2022/10/04 09:15:55;;;;;;;3.53;1.25;;;;;;;16.60;40.63;99769.56;5008079;28;20507;-71
2022/10/04 09:18:28;;;;;;;9.13;1.70;;;;;;;16.86;39.68;99776.56;5000951;28;20111;-71
2022/10/04 09:20:57;;;;;;;6.80;1.40;;;;;;;17.28;39.39;99770.19;5008648;28;20068;-71
2022/10/04 09:23:47;;;;;;;4.30;1.38;;;;;;;17.40;39.01;99764.38;5003313;28;20041;-73
2022/10/04 09:26:23;;;;;;;5.72;1.40;;;;;;;17.38;38.86;99777.28;5000836;28;20480;-73
2022/10/04 09:29:25;;;;;;;2.53;1.52;;;;;;;17.18;39.83;99782.09;5004770;28;20029;-73
2022/10/04 09:32:26;;;;;;;6.38;1.50;;;;;;;16.85;39.92;99778.56;5004601;28;20037;-71
2022/10/04 09:34:55;;;;;;;4.45;1.40;;;;;;;16.94;39.40;99782.00;4996657;28;20386;-70
2022/10/04 09:37:27;;;;;;;2.30;1.27;;;;;;;17.36;38.53;99782.44;5005284;28;20113;-69
2022/10/04 09:40:30;;;;;;;2.08;1.20;;;;;;;17.21;39.02;99784.19;5005845;28;20033;-68
2022/10/04 09:43:16;;;;;;;1.23;1.00;;;;;;;17.34;39.16;99782.00;5002543;28;20544;-68
2022/10/04 09:46:02;;;;;;;0.93;0.90;;;;;;;17.75;38.18;99782.41;5003514;28;20053;-68
2022/10/04 09:48:47;;;;;;;10.27;2.00;;;;;;;18.16;36.78;99778.25;5007362;28;20033;-69
2022/10/04 09:51:54;;;;;;;1.83;1.35;;;;;;;18.20;36.55;99776.28;4999086;28;20029;-68
2022/10/04 09:54:44;;;;;;;1.15;0.90;;;;;;;18.34;36.43;99768.03;5006004;28;20558;-69
2022/10/04 09:57:10;;;;;;;;;;;;;;;18.45;36.19;99770.19;5008076;28;20064;-68
2022/10/04 09:59:53;;;;;;;4.53;1.50;;;;;;;18.73;36.25;99766.97;5008877;28;20366;-69
2022/10/04 10:02:39;;;;;;;1.67;1.23;;;;;;;18.83;35.62;99776.81;5012487;28;21004;-68
2022/10/04 10:05:19;;;;;;;1.52;1.10;;;;;;;18.83;35.11;99776.81;4989995;28;20307;-69
2022/10/04 10:08:22;;;;;;;1.40;1.00;;;;;;;18.99;35.28;99776.59;5010265;28;20083;-69
2022/10/04 10:14:25;;;;;;;3.85;1.02;;;;;;;18.58;34.91;99773.63;5013717;28;20048;-69
2022/10/04 10:17:00;;;;;;;2.67;1.35;;;;;;;18.94;34.67;99769.28;5014151;28;20113;-69
2022/10/04 10:19:43;;;;;;;2.88;1.25;;;;;;;18.96;34.90;99763.22;5012075;28;20040;-69
2022/10/04 10:22:45;;;;;;;1.40;1.10;;;;;;;19.11;34.80;99761.41;5010500;28;20088;-69
2022/10/04 10:25:23;;;;;;;1.95;1.10;;;;;;;18.76;34.29;99766.22;5006312;28;20030;-69
2022/10/04 10:28:18;;;;;;;1.50;1.00;;;;;;;18.75;34.80;99770.22;5023943;28;20068;-69
2022/10/04 10:31:07;;;;;;;2.30;0.90;;;;;;;18.66;34.98;99758.38;4984630;28;20130;-69
2022/10/04 10:34:07;;;;;;;3.55;1.05;;;;;;;18.73;35.41;99769.00;5008822;28;20084;-70
2022/10/04 10:36:38;;;;;;;4.15;1.67;;;;;;;19.21;34.62;99765.56;5012591;28;20026;-69
2022/10/04 10:39:25;;;;;;;4.60;1.95;;;;;;;19.29;33.93;99770.13;5008309;28;20026;-69
2022/10/04 10:42:19;;;;;;;2.33;1.20;;;;;;;18.85;34.97;99765.91;5012842;28;20087;-69
2022/10/04 10:45:13;;;;;;;3.10;1.23;;;;;;;18.54;35.02;99767.09;5010649;28;20064;-68
2022/10/04 10:48:05;;;;;;;7.30;1.60;;;;;;;18.69;34.84;99762.44;5014090;28;20101;-69
2022/10/04 10:51:09;;;;;;;4.43;1.20;;;;;;;18.61;35.42;99762.34;5012056;28;20029;-68
2022/10/04 10:54:12;;;;;;;5.07;1.30;;;;;;;19.01;34.33;99764.91;5008652;28;20033;-68
2022/10/04 10:56:45;;;;;;;3.97;0.98;;;;;;;18.80;34.35;99758.56;5010971;28;20478;-68
2022/10/04 10:59:35;;;;;;;1.58;1.00;;;;;;;19.16;34.48;99763.88;5005367;28;20018;-69
2022/10/04 11:02:04;;;;;;;;;;;;;;;19.15;34.27;99755.78;5013351;28;20029;-69
2022/10/04 11:05:07;;;;;;;3.72;1.50;;;;;;;19.41;33.69;99760.50;4999981;28;20004;-69
2022/10/04 11:07:51;;;;;;;3.47;1.30;;;;;;;19.54;33.76;99760.25;5007381;28;20032;-68
2022/10/04 11:10:41;;;;;;;6.45;1.55;;;;;;;19.47;33.91;99764.66;5010831;28;20034;-68
2022/10/04 11:13:36;;;;;;;3.72;1.30;;;;;;;18.97;34.68;99761.19;5009673;28;20103;-68
2022/10/04 11:16:23;;;;;;;7.43;1.55;;;;;;;18.43;35.56;99761.25;5011585;28;20037;-69
2022/10/04 11:19:20;;;;;;;2.28;1.20;;;;;;;18.22;35.69;99765.38;5005329;28;20056;-68
2022/10/04 11:22:18;;;;;;;4.10;1.20;;;;;;;18.43;35.47;99767.75;4987275;28;20078;-68
2022/10/04 11:25:03;;;;;;;3.10;1.60;;;;;;;18.93;34.88;99764.00;5007975;28;20088;-68
2022/10/04 11:27:56;;;;;;;6.93;1.55;;;;;;;19.29;34.90;99766.47;5003792;28;20026;-68
2022/10/04 11:30:28;;;;;;;3.85;1.15;;;;;;;19.01;34.29;99768.59;4999898;28;20500;-68
2022/10/04 11:33:44;;;;;;;3.10;1.10;;;;;;;18.28;35.36;99778.03;5013340;28;20018;-68
2022/10/04 11:36:27;;;;;;;3.13;1.10;;;;;;;18.40;35.65;99776.19;5008289;28;20030;-68
2022/10/04 11:39:19;;;;;;;1.48;1.25;;;;;;;18.50;36.03;99762.19;5011181;28;20042;-68
2022/10/04 11:42:18;;;;;;;2.47;1.23;;;;;;;18.36;36.10;99762.81;5014228;28;20123;-72
2022/10/04 11:45:32;;;;;;;4.47;1.77;;;;;;;18.43;36.16;99769.75;5011357;28;20072;-69
2022/10/04 11:48:12;;;;;;;2.50;1.17;;;;;;;18.44;35.40;99769.38;4992889;28;20463;-69
2022/10/04 11:50:55;;;;;;;2.00;1.20;;;;;;;18.31;35.85;99777.28;5010701;28;20037;-69
2022/10/04 11:53:40;;;;;;;2.20;1.10;;;;;;;18.31;35.88;99765.16;5010905;28;20448;-69
2022/10/04 11:56:28;;;;;;;2.65;1.27;;;;;;;17.95;36.51;99780.31;5003041;28;20508;-68
2022/10/04 11:59:08;;;;;;;3.20;1.77;;;;;;;17.76;37.13;99781.19;4999914;28;20120;-69
2022/10/04 12:02:08;;;;;;;1.27;1.17;;;;;;;17.91;36.17;99787.91;5009924;28;20030;-69
2022/10/04 12:04:52;;;;;;;5.70;1.38;;;;;;;18.05;36.70;99778.88;5013553;28;20080;-69
2022/10/04 12:07:33;;;;;;;2.40;1.23;;;;;;;17.99;35.95;99774.72;5008011;28;20034;-69
2022/10/04 12:09:58;;;;;;;1.80;1.40;;;;;;;17.93;35.86;99771.41;5004483;28;20485;-69
2022/10/04 12:12:46;;;;;;;4.85;1.08;;;;;;;17.96;35.59;99773.47;5009986;28;20036;-69
2022/10/04 12:15:50;;;;;;;9.88;1.83;;;;;;;17.92;35.92;99774.59;5010055;28;20028;-69
2022/10/04 12:18:54;;;;;;;1.35;1.25;;;;;;;17.84;36.43;99787.78;5002596;28;20056;-68
2022/10/04 12:21:57;;;;;;;7.85;1.85;;;;;;;17.81;36.31;99783.69;5014171;28;20029;-68
2022/10/04 12:24:48;;;;;;;5.93;2.10;;;;;;;17.66;36.52;99776.97;5023545;28;20033;-68
2022/10/04 12:27:31;;;;;;;1.65;1.55;;;;;;;17.59;36.62;99778.84;5016460;28;20108;-68
2022/10/04 12:30:15;;;;;;;18.80;2.47;;;;;;;17.82;36.55;99774.03;5009495;28;20120;-68
2022/10/04 12:33:10;;;;;;;1.90;1.58;;;;;;;17.87;36.62;99778.56;5012156;28;20036;-68
2022/10/04 12:35:53;;;;;;;4.40;2.88;;;;;;;18.27;35.81;99765.09;5016490;28;20447;-68
2022/10/04 12:38:22;;;;;;;5.45;2.90;;;;;;;18.30;35.72;99767.16;5011440;28;20030;-68
2022/10/04 12:41:10;;;;;;;2.25;1.60;;;;;;;18.74;34.98;99773.44;5012896;28;20026;-68
2022/10/04 12:44:07;;;;;;;11.55;2.03;;;;;;;18.78;34.65;99777.13;5011882;28;20029;-68